createdAt,value
2022-12-05T18:13:40.772Z,101553.34
2022-12-05T18:16:26.427Z,101551.63
2022-12-05T18:19:11.915Z,101543.84
2022-12-05T18:21:57.281Z,101555.94
2022-12-05T18:24:42.801Z,101553.31
2022-12-05T18:27:28.271Z,101550.75
2022-12-05T18:30:14.041Z,101564.53
2022-12-05T18:32:59.611Z,101564.53
2022-12-05T18:35:45.278Z,101561.97
2022-12-05T18:38:30.616Z,101542.97
2022-12-05T18:41:16.005Z,101557.63
2022-12-05T18:44:01.755Z,101554.22
2022-12-05T18:46:47.357Z,101557.63
2022-12-05T18:49:33.147Z,101575.75
2022-12-05T18:52:18.994Z,101576.59
2022-12-05T18:55:18.396Z,101568.84
2022-12-05T18:58:06.596Z,101581.75
2022-12-05T19:00:51.845Z,101580.06
2022-12-05T19:03:38.820Z,101583.47
2022-12-05T19:06:27.242Z,101580.06
2022-12-05T19:09:15.322Z,101589.53
2022-12-05T19:12:01.459Z,101579.19
2022-12-05T19:14:47.403Z,101580.03
2022-12-05T19:17:34.440Z,101578.34
2022-12-05T19:20:20.062Z,101568.84
2022-12-05T19:23:05.386Z,101572.31
2022-12-05T19:25:55.769Z,101565.41
2022-12-05T19:28:41.419Z,101578.34
2022-12-05T19:31:28.520Z,101575.72
2022-12-05T19:34:14.231Z,101563.69
2022-12-05T19:36:59.566Z,101549.88
2022-12-05T19:39:45.647Z,101571.44
2022-12-05T19:42:31.772Z,101574.03
2022-12-05T19:45:18.219Z,101576.63
2022-12-05T19:48:03.911Z,101563.69
2022-12-05T19:50:57.417Z,101567.09
2022-12-05T19:53:43.931Z,101586.09
2022-12-05T19:56:30.731Z,101585.25
2022-12-05T19:59:17.168Z,101567.97
2022-12-05T20:02:03.022Z,101586.97
2022-12-05T20:04:48.388Z,101568.84
2022-12-05T20:07:34.106Z,101581.78
2022-12-05T20:10:20.493Z,101562.81
2022-12-05T20:13:24.089Z,101576.59
2022-12-05T20:16:12.853Z,101567.13
2022-12-05T20:18:59.144Z,101570.59
2022-12-05T20:21:44.639Z,101561.09
2022-12-05T20:24:30.070Z,101574.03
2022-12-05T20:27:15.478Z,101558.50
2022-12-05T20:30:01.259Z,101558.50
2022-12-05T20:32:46.911Z,101536.06
2022-12-05T20:35:36.123Z,101569.72
2022-12-05T20:38:21.740Z,101550.75
2022-12-05T20:41:10.987Z,101567.97
2022-12-05T20:43:58.901Z,101561.09
2022-12-05T20:46:44.614Z,101568.84
2022-12-05T20:49:29.928Z,101571.44
2022-12-05T20:52:15.224Z,101561.97
2022-12-05T20:55:00.652Z,101548.16
2022-12-05T20:57:46.203Z,101543.00
2022-12-05T21:00:31.782Z,101553.31
2022-12-05T21:03:17.593Z,101529.22
2022-12-05T21:06:11.317Z,101547.28
2022-12-05T21:08:56.980Z,101532.66
2022-12-05T21:11:42.898Z,101538.69
2022-12-05T21:14:28.569Z,101545.56
2022-12-05T21:17:13.918Z,101555.91
2022-12-05T21:19:59.384Z,101557.63
2022-12-05T21:22:45.027Z,101559.38
2022-12-05T21:25:31.900Z,101533.50
2022-12-05T21:28:17.147Z,101545.59
2022-12-05T21:31:14.088Z,101542.13
2022-12-05T21:34:02.688Z,101538.69
2022-12-05T21:36:48.907Z,101542.97
2022-12-05T21:39:34.262Z,101543.00
2022-12-05T21:42:19.883Z,101541.25
2022-12-05T21:45:05.701Z,101539.53
2022-12-05T21:47:51.163Z,101540.41
2022-12-05T21:50:42.384Z,101539.53
2022-12-05T21:53:27.675Z,101525.75
2022-12-05T21:56:15.955Z,101537.81
2022-12-05T21:59:01.250Z,101522.31
2022-12-05T22:01:46.946Z,101520.59
2022-12-05T22:04:32.331Z,101520.59
2022-12-05T22:07:17.875Z,101511.97
2022-12-05T22:10:03.783Z,101520.59
2022-12-05T22:12:49.587Z,101522.31
2022-12-05T22:15:34.857Z,101526.59
2022-12-05T22:18:20.419Z,101524.91
2022-12-05T22:21:13.862Z,101530.06
2022-12-05T22:23:59.259Z,101523.16
2022-12-05T22:26:44.837Z,101518.84
2022-12-05T22:29:30.395Z,101517.16
2022-12-05T22:32:16.015Z,101511.09
2022-12-05T22:35:04.039Z,101511.97
2022-12-05T22:37:50.034Z,101511.97
2022-12-05T22:40:38.171Z,101525.75
2022-12-05T22:43:24.956Z,101532.63
2022-12-05T22:46:17.734Z,101520.59
2022-12-05T22:49:04.578Z,101511.94
2022-12-05T22:51:49.833Z,101517.97
2022-12-05T22:54:35.545Z,101507.63
2022-12-05T22:57:20.876Z,101495.59
2022-12-05T23:00:07.106Z,101501.63
2022-12-05T23:02:52.897Z,101502.50
2022-12-05T23:05:40.553Z,101501.59
2022-12-05T23:08:25.949Z,101482.66
2022-12-05T23:11:12.042Z,101490.41
2022-12-05T23:14:01.942Z,101484.38
2022-12-05T23:16:48.055Z,101489.50
2022-12-05T23:19:33.405Z,101475.72
2022-12-05T23:22:18.690Z,101473.16
2022-12-05T23:25:04.551Z,101462.00
2022-12-05T23:27:49.915Z,101466.28
2022-12-05T23:30:35.645Z,101468.00
2022-12-05T23:33:21.029Z,101461.97
2022-12-05T23:36:07.781Z,101475.75
2022-12-05T23:38:53.813Z,101452.47
2022-12-05T23:41:39.375Z,101475.75
2022-12-05T23:44:24.726Z,101451.59
2022-12-05T23:47:10.220Z,101449.03
2022-12-05T23:49:55.646Z,101461.97
2022-12-05T23:52:41.293Z,101456.78
2022-12-05T23:55:26.935Z,101463.66
2022-12-05T23:58:12.480Z,101461.06
